Yantic, CT (06389)

9:11 PM EDT on August 22, 2014 (GMT -0400)
KCTBALTI2 | Change Station
CLOSE
Current Station
Personal Weather Station
Location: Baltic, CT
Elevation: 187 ft
Nearby Weather Stations

Elev 187 ft 41.62 °N, 72.09 °W | Updated 1 minute ago

Light Rain
Light Rain
67.1 °F
Feels Like 67.1 °F
N
0.0
Wind Variable Wind from WSW
Gusts 0.0 mph

Today
High -- | Low -- °F
--% Chance of Precip.
Yesterday
High -- | Low -- °F
Precip. -- in
6:04 AM 7:37 PM
Waning Crescent, 6% visible
Pressure 30.09 in
Visibility 10.0 miles
Clouds Scattered Clouds 2700 ft
Mostly Cloudy 6500 ft
Overcast 10000 ft
Dew Point 62 °F
Humidity 85%
Rainfall 0.01 in
Snow Depth Not available.
UV 0 out of 12
Pollen 6.00 out of 12
Ozone Good
PM2.5 Good
Flu Activity Not available.
METAR KIJD 230052Z AUTO 03005KT 10SM -RA SCT027 BKN065 OVC100 19/17 A3009 RMK AO2 RAB44 SLPNO P0000 T01940172

More Conditions Fewer Conditions

Pressure 30.09 in
Visibility 10.0 miles
Clouds Scattered Clouds 2700 ft
Mostly Cloudy 6500 ft
Overcast 10000 ft
Dew Point 62 °F
Humidity 85%
Rainfall 0.01 in
Snow Depth Not available.
UV 0 out of 12
Pollen 6.00 out of 12
Ozone Good
PM2.5 Good
Flu Activity Not available.
METAR KIJD 230052Z AUTO 03005KT 10SM -RA SCT027 BKN065 OVC100 19/17 A3009 RMK AO2 RAB44 SLPNO P0000 T01940172

More Conditions Fewer Conditions

10-Day Weather Forecast

Almanac

Astronomy

Aug. 22, 2014 Rise Set
Actual Time 6:04 AM EDT 7:37 PM EDT
Civil Twilight 5:35 AM EDT 8:06 PM EDT
Nautical Twilight 4:59 AM EDT 8:41 PM EDT
Astronomical Twilight 4:22 AM EDT 9:19 PM EDT
Moon 3:23 AM EDT (8/22) 5:44 PM EDT (8/22)
Length of Visible Light 14h 31m
Length of Day
13h 33m
Tomorrow will be 2m 33s shorter.
Waning Crescent, 6% of the Moon is Illuminated
Today
Waning Crescent
Aug 25
New
Sep 2
First Quarter
Sep 8
Full
Sep 15
Last Quarter

Today's Extremes

State Highs State Lows

Community

WunderPhotos

Upload Photos

1,746,337 photos uploaded!

WunderBlogs® & News

Nearby

Air Quality

  Air Quality AQ Index Pollutant
Yesterday Good
OZONE
Yesterday Good
PM2.5
Current Good
PM2.5
Current Good
OZONE
Friday Good
OZONE
Friday Good
PM2.5
Saturday Good
OZONE
Saturday Good
PM2.5
Sunday Good
OZONE
Sunday Good
PM2.5
Monday Good
PM2.5
Monday Good
OZONE

Snow Depth

Station Depth Elevation
No new snow has been reported.

Earthquake Activity

City Distance Mag. Time & Date
No recent earthquake activity has been reported nearby.
Minimum magnitude displayed is 2.5.

Coastal Water Temperatures

Place Temperature
New London, CT 69.1 °F
Newport, RI 70.0 °F
Quonset Point, RI 72.0 °F
Conimicut Light, RI 73.9 °F
Providence, RI 72.0 °F

Nearby Weather Stations